sensor_id;sensor_type;location;lat;lon;timestamp;P1;durP1;ratioP1;P2;durP2;ratioP2
16973;SDS011;8603;46.944;7.412;2022-07-29T00:01:06;4.10;;;3.70;;
16973;SDS011;8603;46.944;7.412;2022-07-29T00:03:31;4.20;;;3.65;;
16973;SDS011;8603;46.944;7.412;2022-07-29T00:05:57;4.47;;;4.07;;
16973;SDS011;8603;46.944;7.412;2022-07-29T00:08:23;5.63;;;3.50;;
16973;SDS011;8603;46.944;7.412;2022-07-29T00:10:48;3.80;;;3.50;;
16973;SDS011;8603;46.944;7.412;2022-07-29T00:13:14;3.92;;;3.55;;
16973;SDS011;8603;46.944;7.412;2022-07-29T00:15:40;5.20;;;3.97;;
16973;SDS011;8603;46.944;7.412;2022-07-29T00:18:06;5.13;;;3.60;;
16973;SDS011;8603;46.944;7.412;2022-07-29T00:20:31;3.83;;;3.53;;
16973;SDS011;8603;46.944;7.412;2022-07-29T00:22:57;4.03;;;3.60;;
16973;SDS011;8603;46.944;7.412;2022-07-29T00:25:23;5.43;;;3.45;;
16973;SDS011;8603;46.944;7.412;2022-07-29T00:27:48;5.03;;;3.45;;
16973;SDS011;8603;46.944;7.412;2022-07-29T00:30:14;4.00;;;3.60;;
16973;SDS011;8603;46.944;7.412;2022-07-29T00:32:40;4.95;;;3.58;;
16973;SDS011;8603;46.944;7.412;2022-07-29T00:35:06;4.15;;;3.67;;
16973;SDS011;8603;46.944;7.412;2022-07-29T00:37:55;5.35;;;3.70;;
16973;SDS011;8603;46.944;7.412;2022-07-29T00:40:21;4.28;;;3.53;;
16973;SDS011;8603;46.944;7.412;2022-07-29T00:42:47;4.63;;;3.42;;
16973;SDS011;8603;46.944;7.412;2022-07-29T00:45:15;3.78;;;3.47;;
16973;SDS011;8603;46.944;7.412;2022-07-29T00:47:41;4.38;;;3.47;;
16973;SDS011;8603;46.944;7.412;2022-07-29T00:50:08;3.63;;;3.20;;
16973;SDS011;8603;46.944;7.412;2022-07-29T00:52:35;4.18;;;3.70;;
16973;SDS011;8603;46.944;7.412;2022-07-29T00:55:06;3.70;;;3.40;;
16973;SDS011;8603;46.944;7.412;2022-07-29T00:57:34;3.60;;;3.30;;
16973;SDS011;8603;46.944;7.412;2022-07-29T01:00:00;3.42;;;3.13;;
16973;SDS011;8603;46.944;7.412;2022-07-29T01:02:26;3.47;;;3.17;;
16973;SDS011;8603;46.944;7.412;2022-07-29T01:04:52;3.42;;;2.83;;
16973;SDS011;8603;46.944;7.412;2022-07-29T01:07:18;3.80;;;3.33;;
16973;SDS011;8603;46.944;7.412;2022-07-29T01:09:44;3.15;;;2.85;;
16973;SDS011;8603;46.944;7.412;2022-07-29T01:12:11;4.22;;;3.00;;
16973;SDS011;8603;46.944;7.412;2022-07-29T01:14:46;3.50;;;3.20;;
16973;SDS011;8603;46.944;7.412;2022-07-29T01:31:45;2.95;;;2.75;;
16973;SDS011;8603;46.944;7.412;2022-07-29T01:34:27;3.33;;;3.03;;
16973;SDS011;8603;46.944;7.412;2022-07-29T01:37:03;4.18;;;2.83;;
16973;SDS011;8603;46.944;7.412;2022-07-29T01:39:32;3.85;;;3.55;;
16973;SDS011;8603;46.944;7.412;2022-07-29T01:42:05;3.50;;;3.20;;
16973;SDS011;8603;46.944;7.412;2022-07-29T01:47:39;4.40;;;3.15;;
16973;SDS011;8603;46.944;7.412;2022-07-29T01:50:08;3.78;;;3.22;;
16973;SDS011;8603;46.944;7.412;2022-07-29T01:52:45;3.45;;;3.15;;
16973;SDS011;8603;46.944;7.412;2022-07-29T01:55:17;3.42;;;3.05;;
16973;SDS011;8603;46.944;7.412;2022-07-29T01:57:47;3.15;;;2.85;;
16973;SDS011;8603;46.944;7.412;2022-07-29T02:00:14;3.13;;;2.83;;
16973;SDS011;8603;46.944;7.412;2022-07-29T02:02:41;3.20;;;2.88;;
16973;SDS011;8603;46.944;7.412;2022-07-29T02:05:10;3.70;;;3.20;;
16973;SDS011;8603;46.944;7.412;2022-07-29T02:07:38;3.63;;;2.92;;
16973;SDS011;8603;46.944;7.412;2022-07-29T02:10:07;3.60;;;3.10;;
16973;SDS011;8603;46.944;7.412;2022-07-29T02:12:34;3.33;;;2.92;;
16973;SDS011;8603;46.944;7.412;2022-07-29T02:15:01;3.78;;;3.35;;
16973;SDS011;8603;46.944;7.412;2022-07-29T02:17:31;3.45;;;3.08;;
16973;SDS011;8603;46.944;7.412;2022-07-29T02:20:01;4.55;;;3.28;;
16973;SDS011;8603;46.944;7.412;2022-07-29T02:22:29;3.10;;;2.80;;
16973;SDS011;8603;46.944;7.412;2022-07-29T02:24:58;3.15;;;2.85;;
16973;SDS011;8603;46.944;7.412;2022-07-29T02:27:25;4.40;;;3.10;;
16973;SDS011;8603;46.944;7.412;2022-07-29T02:29:53;6.18;;;3.38;;
16973;SDS011;8603;46.944;7.412;2022-07-29T02:32:21;3.25;;;2.95;;
16973;SDS011;8603;46.944;7.412;2022-07-29T02:34:49;3.58;;;3.28;;
16973;SDS011;8603;46.944;7.412;2022-07-29T02:37:16;3.25;;;2.95;;
16973;SDS011;8603;46.944;7.412;2022-07-29T02:39:43;4.72;;;2.88;;
16973;SDS011;8603;46.944;7.412;2022-07-29T02:42:11;3.88;;;3.53;;
16973;SDS011;8603;46.944;7.412;2022-07-29T02:44:39;3.95;;;3.50;;
16973;SDS011;8603;46.944;7.412;2022-07-29T02:52:26;3.72;;;3.30;;
16973;SDS011;8603;46.944;7.412;2022-07-29T02:55:00;3.97;;;3.58;;
16973;SDS011;8603;46.944;7.412;2022-07-29T02:57:34;3.72;;;3.42;;
16973;SDS011;8603;46.944;7.412;2022-07-29T03:00:07;3.78;;;3.40;;
16973;SDS011;8603;46.944;7.412;2022-07-29T03:02:39;3.72;;;3.40;;
16973;SDS011;8603;46.944;7.412;2022-07-29T03:05:09;3.38;;;3.05;;
16973;SDS011;8603;46.944;7.412;2022-07-29T03:07:40;3.67;;;3.30;;
16973;SDS011;8603;46.944;7.412;2022-07-29T03:10:08;3.90;;;3.50;;
16973;SDS011;8603;46.944;7.412;2022-07-29T03:12:34;4.13;;;3.67;;
16973;SDS011;8603;46.944;7.412;2022-07-29T03:15:00;3.63;;;3.33;;
16973;SDS011;8603;46.944;7.412;2022-07-29T03:17:27;4.88;;;3.60;;
16973;SDS011;8603;46.944;7.412;2022-07-29T03:19:53;5.55;;;3.45;;
16973;SDS011;8603;46.944;7.412;2022-07-29T03:22:20;4.28;;;3.65;;
16973;SDS011;8603;46.944;7.412;2022-07-29T03:24:45;5.72;;;3.60;;
16973;SDS011;8603;46.944;7.412;2022-07-29T03:27:11;4.25;;;3.85;;
16973;SDS011;8603;46.944;7.412;2022-07-29T03:29:37;7.97;;;4.53;;
16973;SDS011;8603;46.944;7.412;2022-07-29T03:32:03;4.15;;;3.75;;
16973;SDS011;8603;46.944;7.412;2022-07-29T03:34:30;5.65;;;3.92;;
16973;SDS011;8603;46.944;7.412;2022-07-29T03:36:55;4.57;;;4.10;;
16973;SDS011;8603;46.944;7.412;2022-07-29T03:39:22;4.85;;;3.70;;
16973;SDS011;8603;46.944;7.412;2022-07-29T03:41:52;4.20;;;3.83;;
16973;SDS011;8603;46.944;7.412;2022-07-29T03:44:20;4.30;;;3.90;;
16973;SDS011;8603;46.944;7.412;2022-07-29T03:46:46;5.22;;;3.88;;
16973;SDS011;8603;46.944;7.412;2022-07-29T03:49:15;4.63;;;4.15;;
16973;SDS011;8603;46.944;7.412;2022-07-29T03:51:43;4.63;;;3.55;;
16973;SDS011;8603;46.944;7.412;2022-07-29T03:54:09;4.25;;;3.85;;
16973;SDS011;8603;46.944;7.412;2022-07-29T03:56:37;4.43;;;4.03;;
16973;SDS011;8603;46.944;7.412;2022-07-29T03:59:05;4.25;;;3.80;;
16973;SDS011;8603;46.944;7.412;2022-07-29T04:01:32;4.68;;;4.28;;
16973;SDS011;8603;46.944;7.412;2022-07-29T04:04:00;4.05;;;3.72;;
16973;SDS011;8603;46.944;7.412;2022-07-29T04:06:26;3.67;;;3.38;;
16973;SDS011;8603;46.944;7.412;2022-07-29T04:08:52;3.92;;;3.53;;
16973;SDS011;8603;46.944;7.412;2022-07-29T04:11:18;5.13;;;4.35;;
16973;SDS011;8603;46.944;7.412;2022-07-29T04:13:44;5.45;;;3.60;;
16973;SDS011;8603;46.944;7.412;2022-07-29T04:16:09;4.20;;;3.72;;
16973;SDS011;8603;46.944;7.412;2022-07-29T04:18:35;4.18;;;3.72;;
16973;SDS011;8603;46.944;7.412;2022-07-29T04:21:00;4.13;;;3.72;;
16973;SDS011;8603;46.944;7.412;2022-07-29T04:23:29;4.40;;;4.00;;
16973;SDS011;8603;46.944;7.412;2022-07-29T04:25:58;5.13;;;3.65;;
16973;SDS011;8603;46.944;7.412;2022-07-29T04:28:25;3.97;;;3.42;;
16973;SDS011;8603;46.944;7.412;2022-07-29T04:30:50;3.95;;;3.65;;
16973;SDS011;8603;46.944;7.412;2022-07-29T04:33:16;4.65;;;3.83;;
16973;SDS011;8603;46.944;7.412;2022-07-29T04:35:42;3.70;;;3.40;;
16973;SDS011;8603;46.944;7.412;2022-07-29T04:38:07;4.03;;;3.63;;
16973;SDS011;8603;46.944;7.412;2022-07-29T04:40:33;4.35;;;3.70;;
16973;SDS011;8603;46.944;7.412;2022-07-29T04:42:59;4.40;;;3.47;;
16973;SDS011;8603;46.944;7.412;2022-07-29T04:45:26;5.25;;;3.80;;
16973;SDS011;8603;46.944;7.412;2022-07-29T04:47:52;4.30;;;3.90;;
16973;SDS011;8603;46.944;7.412;2022-07-29T04:50:18;4.13;;;3.22;;
16973;SDS011;8603;46.944;7.412;2022-07-29T04:52:43;4.57;;;3.38;;
16973;SDS011;8603;46.944;7.412;2022-07-29T04:55:09;4.05;;;3.65;;
16973;SDS011;8603;46.944;7.412;2022-07-29T04:57:34;4.00;;;3.60;;
16973;SDS011;8603;46.944;7.412;2022-07-29T05:00:00;3.95;;;3.45;;
16973;SDS011;8603;46.944;7.412;2022-07-29T05:02:26;6.72;;;3.97;;
16973;SDS011;8603;46.944;7.412;2022-07-29T05:04:51;5.05;;;3.75;;
16973;SDS011;8603;46.944;7.412;2022-07-29T05:07:17;7.15;;;3.78;;
16973;SDS011;8603;46.944;7.412;2022-07-29T05:09:43;3.83;;;3.47;;
16973;SDS011;8603;46.944;7.412;2022-07-29T05:12:08;4.35;;;3.72;;
16973;SDS011;8603;46.944;7.412;2022-07-29T05:14:34;3.80;;;3.33;;
16973;SDS011;8603;46.944;7.412;2022-07-29T05:17:00;7.95;;;4.00;;
16973;SDS011;8603;46.944;7.412;2022-07-29T05:19:25;4.20;;;3.78;;
16973;SDS011;8603;46.944;7.412;2022-07-29T05:21:51;5.07;;;4.50;;
16973;SDS011;8603;46.944;7.412;2022-07-29T05:24:16;6.43;;;4.72;;
16973;SDS011;8603;46.944;7.412;2022-07-29T05:26:42;6.18;;;4.80;;
16973;SDS011;8603;46.944;7.412;2022-07-29T05:29:08;6.05;;;5.00;;
16973;SDS011;8603;46.944;7.412;2022-07-29T05:31:34;4.97;;;4.55;;
16973;SDS011;8603;46.944;7.412;2022-07-29T05:33:59;5.63;;;4.45;;
16973;SDS011;8603;46.944;7.412;2022-07-29T05:36:25;4.30;;;3.90;;
16973;SDS011;8603;46.944;7.412;2022-07-29T05:38:51;4.65;;;4.20;;
16973;SDS011;8603;46.944;7.412;2022-07-29T05:41:17;5.88;;;3.65;;
16973;SDS011;8603;46.944;7.412;2022-07-29T05:43:43;4.97;;;4.35;;
16973;SDS011;8603;46.944;7.412;2022-07-29T05:46:09;4.63;;;4.13;;
16973;SDS011;8603;46.944;7.412;2022-07-29T05:48:34;4.40;;;3.97;;
16973;SDS011;8603;46.944;7.412;2022-07-29T05:51:00;4.55;;;4.15;;
16973;SDS011;8603;46.944;7.412;2022-07-29T05:53:26;4.18;;;3.78;;
16973;SDS011;8603;46.944;7.412;2022-07-29T05:55:51;5.78;;;3.55;;
16973;SDS011;8603;46.944;7.412;2022-07-29T05:58:17;4.85;;;4.40;;
16973;SDS011;8603;46.944;7.412;2022-07-29T06:00:43;5.60;;;4.00;;
16973;SDS011;8603;46.944;7.412;2022-07-29T06:03:08;4.95;;;4.32;;
16973;SDS011;8603;46.944;7.412;2022-07-29T06:05:34;4.70;;;4.30;;
16973;SDS011;8603;46.944;7.412;2022-07-29T06:07:59;4.43;;;3.97;;
16973;SDS011;8603;46.944;7.412;2022-07-29T06:10:25;4.95;;;4.43;;
16973;SDS011;8603;46.944;7.412;2022-07-29T06:12:51;5.60;;;4.72;;
16973;SDS011;8603;46.944;7.412;2022-07-29T06:15:17;4.47;;;4.07;;
16973;SDS011;8603;46.944;7.412;2022-07-29T06:17:43;8.48;;;4.35;;
16973;SDS011;8603;46.944;7.412;2022-07-29T06:20:09;4.95;;;4.47;;
16973;SDS011;8603;46.944;7.412;2022-07-29T06:22:35;7.85;;;5.28;;
16973;SDS011;8603;46.944;7.412;2022-07-29T06:25:01;4.72;;;4.32;;
16973;SDS011;8603;46.944;7.412;2022-07-29T06:27:27;4.78;;;4.35;;
16973;SDS011;8603;46.944;7.412;2022-07-29T06:29:53;5.63;;;4.22;;
16973;SDS011;8603;46.944;7.412;2022-07-29T06:32:18;4.63;;;4.20;;
16973;SDS011;8603;46.944;7.412;2022-07-29T06:34:44;4.57;;;4.18;;
16973;SDS011;8603;46.944;7.412;2022-07-29T06:37:10;4.70;;;4.15;;
16973;SDS011;8603;46.944;7.412;2022-07-29T06:39:35;4.65;;;4.25;;
16973;SDS011;8603;46.944;7.412;2022-07-29T06:42:01;3.75;;;3.45;;
16973;SDS011;8603;46.944;7.412;2022-07-29T06:44:28;4.78;;;4.28;;
16973;SDS011;8603;46.944;7.412;2022-07-29T06:46:54;4.57;;;4.18;;
16973;SDS011;8603;46.944;7.412;2022-07-29T06:49:20;4.47;;;4.05;;
16973;SDS011;8603;46.944;7.412;2022-07-29T06:51:46;6.82;;;4.50;;
16973;SDS011;8603;46.944;7.412;2022-07-29T06:54:12;4.90;;;4.50;;
16973;SDS011;8603;46.944;7.412;2022-07-29T06:56:37;6.05;;;5.45;;
16973;SDS011;8603;46.944;7.412;2022-07-29T06:59:06;5.20;;;4.70;;
16973;SDS011;8603;46.944;7.412;2022-07-29T07:01:33;5.15;;;4.63;;
16973;SDS011;8603;46.944;7.412;2022-07-29T07:03:58;4.43;;;4.03;;
16973;SDS011;8603;46.944;7.412;2022-07-29T07:06:24;4.40;;;4.00;;
16973;SDS011;8603;46.944;7.412;2022-07-29T07:08:49;4.55;;;3.92;;
16973;SDS011;8603;46.944;7.412;2022-07-29T07:11:15;5.03;;;3.90;;
16973;SDS011;8603;46.944;7.412;2022-07-29T07:13:41;4.75;;;4.25;;
16973;SDS011;8603;46.944;7.412;2022-07-29T07:16:06;4.80;;;4.40;;
16973;SDS011;8603;46.944;7.412;2022-07-29T07:18:32;4.03;;;3.63;;
16973;SDS011;8603;46.944;7.412;2022-07-29T07:20:57;4.45;;;3.80;;
16973;SDS011;8603;46.944;7.412;2022-07-29T07:23:23;4.18;;;3.78;;
16973;SDS011;8603;46.944;7.412;2022-07-29T07:25:49;4.95;;;3.58;;
16973;SDS011;8603;46.944;7.412;2022-07-29T07:28:16;5.47;;;4.45;;
16973;SDS011;8603;46.944;7.412;2022-07-29T07:30:41;7.57;;;4.60;;
16973;SDS011;8603;46.944;7.412;2022-07-29T07:33:07;4.68;;;4.28;;
16973;SDS011;8603;46.944;7.412;2022-07-29T07:35:32;6.47;;;4.78;;
16973;SDS011;8603;46.944;7.412;2022-07-29T07:37:58;4.72;;;4.32;;
16973;SDS011;8603;46.944;7.412;2022-07-29T07:40:23;5.57;;;4.25;;
16973;SDS011;8603;46.944;7.412;2022-07-29T07:42:49;4.80;;;4.30;;
16973;SDS011;8603;46.944;7.412;2022-07-29T07:45:15;3.85;;;3.55;;
16973;SDS011;8603;46.944;7.412;2022-07-29T07:47:41;4.15;;;3.75;;
16973;SDS011;8603;46.944;7.412;2022-07-29T07:50:07;4.90;;;4.38;;
16973;SDS011;8603;46.944;7.412;2022-07-29T07:52:37;4.50;;;4.07;;
16973;SDS011;8603;46.944;7.412;2022-07-29T07:55:17;4.88;;;4.38;;
16973;SDS011;8603;46.944;7.412;2022-07-29T07:57:44;4.40;;;4.07;;
16973;SDS011;8603;46.944;7.412;2022-07-29T08:00:10;4.70;;;4.30;;
16973;SDS011;8603;46.944;7.412;2022-07-29T08:02:37;4.43;;;3.97;;
16973;SDS011;8603;46.944;7.412;2022-07-29T08:05:04;4.50;;;4.05;;
16973;SDS011;8603;46.944;7.412;2022-07-29T08:07:31;5.65;;;5.15;;
16973;SDS011;8603;46.944;7.412;2022-07-29T08:09:57;7.70;;;5.25;;
16973;SDS011;8603;46.944;7.412;2022-07-29T08:12:22;6.15;;;5.00;;
16973;SDS011;8603;46.944;7.412;2022-07-29T08:14:48;8.13;;;5.40;;
16973;SDS011;8603;46.944;7.412;2022-07-29T08:17:13;7.53;;;5.75;;
16973;SDS011;8603;46.944;7.412;2022-07-29T08:19:39;5.47;;;4.97;;
16973;SDS011;8603;46.944;7.412;2022-07-29T08:22:04;6.20;;;5.53;;
16973;SDS011;8603;46.944;7.412;2022-07-29T08:24:30;5.60;;;5.10;;
16973;SDS011;8603;46.944;7.412;2022-07-29T08:27:08;6.03;;;5.43;;
16973;SDS011;8603;46.944;7.412;2022-07-29T08:29:35;6.47;;;5.88;;
16973;SDS011;8603;46.944;7.412;2022-07-29T08:32:01;5.78;;;4.78;;
16973;SDS011;8603;46.944;7.412;2022-07-29T08:34:26;4.65;;;4.25;;
16973;SDS011;8603;46.944;7.412;2022-07-29T08:36:53;5.85;;;4.50;;
16973;SDS011;8603;46.944;7.412;2022-07-29T08:39:19;5.32;;;4.30;;
16973;SDS011;8603;46.944;7.412;2022-07-29T08:41:45;5.15;;;4.65;;
16973;SDS011;8603;46.944;7.412;2022-07-29T08:44:10;5.55;;;4.07;;
16973;SDS011;8603;46.944;7.412;2022-07-29T08:46:37;4.20;;;3.80;;
16973;SDS011;8603;46.944;7.412;2022-07-29T08:49:03;4.47;;;4.07;;
16973;SDS011;8603;46.944;7.412;2022-07-29T08:51:29;4.30;;;3.90;;
16973;SDS011;8603;46.944;7.412;2022-07-29T08:53:57;4.85;;;4.45;;
16973;SDS011;8603;46.944;7.412;2022-07-29T08:56:23;4.20;;;3.65;;
16973;SDS011;8603;46.944;7.412;2022-07-29T08:58:49;6.15;;;4.47;;
16973;SDS011;8603;46.944;7.412;2022-07-29T09:01:16;4.00;;;3.60;;
16973;SDS011;8603;46.944;7.412;2022-07-29T09:03:46;4.97;;;4.10;;
16973;SDS011;8603;46.944;7.412;2022-07-29T09:06:14;5.35;;;4.70;;
16973;SDS011;8603;46.944;7.412;2022-07-29T09:08:41;4.75;;;4.35;;
16973;SDS011;8603;46.944;7.412;2022-07-29T09:11:07;4.13;;;3.83;;
16973;SDS011;8603;46.944;7.412;2022-07-29T09:13:33;4.95;;;4.55;;
16973;SDS011;8603;46.944;7.412;2022-07-29T09:15:59;4.93;;;4.43;;
16973;SDS011;8603;46.944;7.412;2022-07-29T09:18:34;6.93;;;4.82;;
16973;SDS011;8603;46.944;7.412;2022-07-29T09:21:07;4.82;;;4.35;;
16973;SDS011;8603;46.944;7.412;2022-07-29T09:23:59;5.20;;;4.70;;
16973;SDS011;8603;46.944;7.412;2022-07-29T09:26:28;5.20;;;4.25;;
16973;SDS011;8603;46.944;7.412;2022-07-29T09:28:56;5.82;;;4.85;;
16973;SDS011;8603;46.944;7.412;2022-07-29T09:31:32;5.47;;;4.20;;
16973;SDS011;8603;46.944;7.412;2022-07-29T09:33:59;5.97;;;4.93;;
16973;SDS011;8603;46.944;7.412;2022-07-29T09:36:25;5.13;;;4.63;;
16973;SDS011;8603;46.944;7.412;2022-07-29T09:39:00;7.45;;;5.10;;
16973;SDS011;8603;46.944;7.412;2022-07-29T09:41:27;6.15;;;4.15;;
16973;SDS011;8603;46.944;7.412;2022-07-29T09:43:56;6.30;;;5.30;;
16973;SDS011;8603;46.944;7.412;2022-07-29T09:46:23;7.07;;;4.97;;
16973;SDS011;8603;46.944;7.412;2022-07-29T09:49:09;5.32;;;4.05;;
16973;SDS011;8603;46.944;7.412;2022-07-29T09:51:35;5.00;;;4.50;;
16973;SDS011;8603;46.944;7.412;2022-07-29T09:54:02;5.95;;;5.35;;
16973;SDS011;8603;46.944;7.412;2022-07-29T09:56:46;6.65;;;4.43;;
16973;SDS011;8603;46.944;7.412;2022-07-29T09:59:12;8.15;;;5.32;;
16973;SDS011;8603;46.944;7.412;2022-07-29T10:01:38;5.30;;;4.80;;
16973;SDS011;8603;46.944;7.412;2022-07-29T10:04:04;6.38;;;4.53;;
16973;SDS011;8603;46.944;7.412;2022-07-29T10:06:30;4.32;;;3.85;;
16973;SDS011;8603;46.944;7.412;2022-07-29T10:09:17;5.05;;;4.18;;
16973;SDS011;8603;46.944;7.412;2022-07-29T10:11:42;5.03;;;4.57;;
16973;SDS011;8603;46.944;7.412;2022-07-29T10:14:27;5.97;;;4.50;;
16973;SDS011;8603;46.944;7.412;2022-07-29T10:16:53;4.95;;;3.90;;
16973;SDS011;8603;46.944;7.412;2022-07-29T10:19:18;5.82;;;4.38;;
16973;SDS011;8603;46.944;7.412;2022-07-29T10:21:44;4.50;;;4.10;;
16973;SDS011;8603;46.944;7.412;2022-07-29T10:24:10;4.15;;;3.85;;
16973;SDS011;8603;46.944;7.412;2022-07-29T10:26:36;6.63;;;4.40;;
16973;SDS011;8603;46.944;7.412;2022-07-29T10:29:05;4.60;;;3.90;;
16973;SDS011;8603;46.944;7.412;2022-07-29T10:31:36;3.85;;;3.45;;
16973;SDS011;8603;46.944;7.412;2022-07-29T10:42:17;4.22;;;3.83;;
16973;SDS011;8603;46.944;7.412;2022-07-29T10:44:49;5.35;;;4.85;;
16973;SDS011;8603;46.944;7.412;2022-07-29T10:47:21;5.45;;;4.00;;
16973;SDS011;8603;46.944;7.412;2022-07-29T10:50:01;4.93;;;4.53;;
16973;SDS011;8603;46.944;7.412;2022-07-29T10:58:14;3.85;;;3.55;;
16973;SDS011;8603;46.944;7.412;2022-07-29T11:00:39;4.07;;;3.67;;
16973;SDS011;8603;46.944;7.412;2022-07-29T11:03:05;4.57;;;3.47;;
16973;SDS011;8603;46.944;7.412;2022-07-29T11:05:41;8.05;;;4.13;;
16973;SDS011;8603;46.944;7.412;2022-07-29T11:08:25;5.20;;;4.07;;
16973;SDS011;8603;46.944;7.412;2022-07-29T11:10:51;3.90;;;3.42;;
16973;SDS011;8603;46.944;7.412;2022-07-29T11:16:08;5.65;;;4.00;;
16973;SDS011;8603;46.944;7.412;2022-07-29T11:18:33;4.55;;;3.90;;
16973;SDS011;8603;46.944;7.412;2022-07-29T11:20:59;4.50;;;4.13;;
16973;SDS011;8603;46.944;7.412;2022-07-29T11:23:32;3.33;;;3.00;;
16973;SDS011;8603;46.944;7.412;2022-07-29T11:28:50;4.38;;;3.50;;
16973;SDS011;8603;46.944;7.412;2022-07-29T11:31:42;4.40;;;3.53;;
16973;SDS011;8603;46.944;7.412;2022-07-29T11:39:35;5.00;;;3.38;;
16973;SDS011;8603;46.944;7.412;2022-07-29T11:44:57;3.45;;;3.15;;
16973;SDS011;8603;46.944;7.412;2022-07-29T11:47:26;3.72;;;3.42;;
16973;SDS011;8603;46.944;7.412;2022-07-29T11:49:55;4.20;;;3.40;;
16973;SDS011;8603;46.944;7.412;2022-07-29T11:52:35;3.67;;;3.38;;
16973;SDS011;8603;46.944;7.412;2022-07-29T11:55:08;4.00;;;3.38;;
16973;SDS011;8603;46.944;7.412;2022-07-29T11:57:34;3.30;;;3.00;;
16973;SDS011;8603;46.944;7.412;2022-07-29T12:00:00;3.28;;;3.08;;
16973;SDS011;8603;46.944;7.412;2022-07-29T12:02:41;3.72;;;3.40;;
16973;SDS011;8603;46.944;7.412;2022-07-29T12:05:08;3.70;;;3.40;;
16973;SDS011;8603;46.944;7.412;2022-07-29T12:07:36;4.78;;;3.40;;
16973;SDS011;8603;46.944;7.412;2022-07-29T12:10:03;3.90;;;3.60;;
16973;SDS011;8603;46.944;7.412;2022-07-29T12:12:30;4.63;;;4.18;;
16973;SDS011;8603;46.944;7.412;2022-07-29T12:14:55;4.90;;;4.43;;
16973;SDS011;8603;46.944;7.412;2022-07-29T12:17:32;4.30;;;3.83;;
16973;SDS011;8603;46.944;7.412;2022-07-29T12:20:00;3.90;;;3.60;;
16973;SDS011;8603;46.944;7.412;2022-07-29T12:22:34;3.90;;;3.60;;
16973;SDS011;8603;46.944;7.412;2022-07-29T12:27:32;4.30;;;3.90;;
16973;SDS011;8603;46.944;7.412;2022-07-29T12:29:59;4.22;;;3.92;;
16973;SDS011;8603;46.944;7.412;2022-07-29T12:32:31;4.47;;;4.07;;
16973;SDS011;8603;46.944;7.412;2022-07-29T12:35:04;4.32;;;3.92;;
16973;SDS011;8603;46.944;7.412;2022-07-29T12:37:32;5.40;;;4.38;;
16973;SDS011;8603;46.944;7.412;2022-07-29T12:40:00;4.78;;;4.32;;
16973;SDS011;8603;46.944;7.412;2022-07-29T12:42:27;6.00;;;4.60;;
16973;SDS011;8603;46.944;7.412;2022-07-29T12:44:52;6.43;;;4.97;;
16973;SDS011;8603;46.944;7.412;2022-07-29T12:47:18;5.93;;;5.38;;
16973;SDS011;8603;46.944;7.412;2022-07-29T12:49:45;7.28;;;5.90;;
16973;SDS011;8603;46.944;7.412;2022-07-29T12:54:52;6.00;;;5.45;;
16973;SDS011;8603;46.944;7.412;2022-07-29T12:57:18;5.72;;;5.15;;
16973;SDS011;8603;46.944;7.412;2022-07-29T12:59:44;5.15;;;4.43;;
16973;SDS011;8603;46.944;7.412;2022-07-29T13:02:22;4.72;;;4.32;;
16973;SDS011;8603;46.944;7.412;2022-07-29T13:04:54;10.30;;;5.97;;
16973;SDS011;8603;46.944;7.412;2022-07-29T13:07:25;5.57;;;4.97;;
16973;SDS011;8603;46.944;7.412;2022-07-29T13:10:11;5.97;;;5.38;;
16973;SDS011;8603;46.944;7.412;2022-07-29T13:13:00;6.25;;;4.20;;
16973;SDS011;8603;46.944;7.412;2022-07-29T13:15:28;5.03;;;3.80;;
16973;SDS011;8603;46.944;7.412;2022-07-29T13:17:54;4.25;;;3.65;;
16973;SDS011;8603;46.944;7.412;2022-07-29T13:20:23;3.53;;;3.22;;
16973;SDS011;8603;46.944;7.412;2022-07-29T13:22:49;4.22;;;3.60;;
16973;SDS011;8603;46.944;7.412;2022-07-29T13:25:22;3.00;;;2.42;;
16973;SDS011;8603;46.944;7.412;2022-07-29T13:27:53;3.13;;;2.83;;
16973;SDS011;8603;46.944;7.412;2022-07-29T13:30:19;2.75;;;2.25;;
16973;SDS011;8603;46.944;7.412;2022-07-29T13:32:46;2.92;;;2.40;;
16973;SDS011;8603;46.944;7.412;2022-07-29T13:35:12;2.53;;;2.33;;
16973;SDS011;8603;46.944;7.412;2022-07-29T13:37:38;2.70;;;2.47;;
16973;SDS011;8603;46.944;7.412;2022-07-29T13:40:04;2.47;;;1.85;;
16973;SDS011;8603;46.944;7.412;2022-07-29T13:42:31;3.40;;;2.20;;
16973;SDS011;8603;46.944;7.412;2022-07-29T13:44:57;2.83;;;2.10;;
16973;SDS011;8603;46.944;7.412;2022-07-29T13:47:23;2.15;;;1.95;;
16973;SDS011;8603;46.944;7.412;2022-07-29T13:49:49;4.13;;;2.10;;
16973;SDS011;8603;46.944;7.412;2022-07-29T13:52:15;2.60;;;1.90;;
16973;SDS011;8603;46.944;7.412;2022-07-29T13:54:41;2.58;;;2.05;;
16973;SDS011;8603;46.944;7.412;2022-07-29T13:57:08;2.03;;;1.90;;
16973;SDS011;8603;46.944;7.412;2022-07-29T13:59:35;3.95;;;1.90;;
16973;SDS011;8603;46.944;7.412;2022-07-29T14:02:01;2.40;;;1.60;;
16973;SDS011;8603;46.944;7.412;2022-07-29T14:04:27;2.70;;;1.65;;
16973;SDS011;8603;46.944;7.412;2022-07-29T14:06:53;2.25;;;2.00;;
16973;SDS011;8603;46.944;7.412;2022-07-29T14:09:19;3.65;;;1.70;;
16973;SDS011;8603;46.944;7.412;2022-07-29T14:11:44;2.97;;;2.10;;
16973;SDS011;8603;46.944;7.412;2022-07-29T14:14:10;2.70;;;2.25;;
16973;SDS011;8603;46.944;7.412;2022-07-29T14:16:36;2.20;;;2.00;;
16973;SDS011;8603;46.944;7.412;2022-07-29T14:19:02;2.50;;;2.20;;
16973;SDS011;8603;46.944;7.412;2022-07-29T14:21:28;2.58;;;2.28;;
16973;SDS011;8603;46.944;7.412;2022-07-29T14:23:53;2.30;;;2.10;;
16973;SDS011;8603;46.944;7.412;2022-07-29T14:26:20;2.33;;;2.00;;
16973;SDS011;8603;46.944;7.412;2022-07-29T14:28:46;3.03;;;1.92;;
16973;SDS011;8603;46.944;7.412;2022-07-29T14:31:12;2.22;;;2.03;;
16973;SDS011;8603;46.944;7.412;2022-07-29T14:33:38;2.63;;;2.10;;
16973;SDS011;8603;46.944;7.412;2022-07-29T14:36:03;2.78;;;2.53;;
16973;SDS011;8603;46.944;7.412;2022-07-29T14:38:29;2.80;;;2.50;;
16973;SDS011;8603;46.944;7.412;2022-07-29T14:40:54;2.67;;;2.47;;
16973;SDS011;8603;46.944;7.412;2022-07-29T14:43:20;2.67;;;2.47;;
16973;SDS011;8603;46.944;7.412;2022-07-29T14:45:45;2.22;;;2.03;;
16973;SDS011;8603;46.944;7.412;2022-07-29T14:48:11;2.92;;;2.30;;
16973;SDS011;8603;46.944;7.412;2022-07-29T14:50:37;2.03;;;1.88;;
16973;SDS011;8603;46.944;7.412;2022-07-29T14:53:03;2.20;;;2.00;;
16973;SDS011;8603;46.944;7.412;2022-07-29T14:55:28;2.40;;;2.05;;
16973;SDS011;8603;46.944;7.412;2022-07-29T14:57:54;3.42;;;2.03;;
16973;SDS011;8603;46.944;7.412;2022-07-29T15:00:20;2.00;;;1.88;;
16973;SDS011;8603;46.944;7.412;2022-07-29T15:02:46;2.30;;;2.10;;
16973;SDS011;8603;46.944;7.412;2022-07-29T15:05:13;2.63;;;1.70;;
16973;SDS011;8603;46.944;7.412;2022-07-29T15:07:38;2.97;;;2.15;;
16973;SDS011;8603;46.944;7.412;2022-07-29T15:10:04;2.20;;;2.10;;
16973;SDS011;8603;46.944;7.412;2022-07-29T15:12:31;2.92;;;2.22;;
16973;SDS011;8603;46.944;7.412;2022-07-29T15:14:57;2.00;;;1.90;;
16973;SDS011;8603;46.944;7.412;2022-07-29T15:17:23;4.00;;;2.13;;
16973;SDS011;8603;46.944;7.412;2022-07-29T15:19:48;3.28;;;1.70;;
16973;SDS011;8603;46.944;7.412;2022-07-29T15:22:14;2.85;;;1.75;;
16973;SDS011;8603;46.944;7.412;2022-07-29T15:24:39;3.60;;;2.20;;
16973;SDS011;8603;46.944;7.412;2022-07-29T15:27:05;2.05;;;1.70;;
16973;SDS011;8603;46.944;7.412;2022-07-29T15:29:31;1.73;;;1.63;;
16973;SDS011;8603;46.944;7.412;2022-07-29T15:31:56;2.25;;;1.63;;
16973;SDS011;8603;46.944;7.412;2022-07-29T15:34:22;1.85;;;1.67;;
16973;SDS011;8603;46.944;7.412;2022-07-29T15:36:50;1.55;;;1.45;;
16973;SDS011;8603;46.944;7.412;2022-07-29T15:39:16;1.88;;;1.63;;
16973;SDS011;8603;46.944;7.412;2022-07-29T15:41:42;1.90;;;1.80;;
16973;SDS011;8603;46.944;7.412;2022-07-29T15:44:08;2.05;;;1.55;;
16973;SDS011;8603;46.944;7.412;2022-07-29T15:46:33;1.90;;;1.80;;
16973;SDS011;8603;46.944;7.412;2022-07-29T15:49:17;1.98;;;1.60;;
16973;SDS011;8603;46.944;7.412;2022-07-29T15:51:43;1.70;;;1.60;;
16973;SDS011;8603;46.944;7.412;2022-07-29T15:54:09;1.70;;;1.60;;
16973;SDS011;8603;46.944;7.412;2022-07-29T15:56:34;1.85;;;1.65;;
16973;SDS011;8603;46.944;7.412;2022-07-29T15:59:00;1.75;;;1.52;;